Time;durP1;ratioP1;P1;durP2;ratioP2;P2;SDS_P1;SDS_P2;PMS_P1;PMS_P2;Temp;Humidity;BMP_temperature;BMP_pressure;BME280_temperature;BME280_humidity;BME280_pressure;Samples;Min_cycle;Max_cycle;Signal;HPM_P1;HPM_P2
2023/05/12 00:00:17;;;;;;;3.35;0.70;;;;;;;;;;6269960;22;20534;-77
2023/05/12 00:02:43;;;;;;;1.00;0.63;;;;;;;;;;6243134;22;20038;-76
2023/05/12 00:05:09;;;;;;;1.88;0.68;;;;;;;;;;6270436;22;20597;-77
2023/05/12 00:07:35;;;;;;;2.55;0.70;;;;;;;;;;6269782;22;20007;-77
2023/05/12 00:10:00;;;;;;;1.90;0.80;;;;;;;;;;6270530;22;20566;-77
2023/05/12 00:12:26;;;;;;;1.77;0.70;;;;;;;;;;6269849;22;20079;-77
2023/05/12 00:14:51;;;;;;;0.95;0.70;;;;;;;;;;6270506;22;19999;-76
2023/05/12 00:17:17;;;;;;;1.27;0.60;;;;;;;;;;6270114;22;20057;-77
2023/05/12 00:19:43;;;;;;;1.55;0.70;;;;;;;;;;6270897;22;20004;-77
2023/05/12 00:22:11;;;;;;;2.10;0.70;;;;;;;;;;6269659;22;20034;-77
2023/05/12 00:24:37;;;;;;;1.17;0.70;;;;;;;;;;6270402;22;20363;-77
2023/05/12 00:27:03;;;;;;;2.05;0.70;;;;;;;;;;6269824;22;20421;-76
2023/05/12 00:29:28;;;;;;;1.58;0.50;;;;;;;;;;6270341;22;20006;-77
2023/05/12 00:32:00;;;;;;;3.10;0.70;;;;;;;;;;6270077;22;20004;-77
2023/05/12 00:34:28;;;;;;;1.15;0.57;;;;;;;;;;6243207;22;20082;-77
2023/05/12 00:36:54;;;;;;;1.65;0.60;;;;;;;;;;6243375;22;20034;-77
2023/05/12 00:39:20;;;;;;;2.53;0.85;;;;;;;;;;6272322;22;20008;-77
2023/05/12 00:41:46;;;;;;;2.65;0.68;;;;;;;;;;6271207;22;20014;-77
2023/05/12 00:44:12;;;;;;;2.72;0.70;;;;;;;;;;6271728;22;20084;-77
2023/05/12 00:46:38;;;;;;;2.28;0.80;;;;;;;;;;6244586;22;20035;-76
2023/05/12 00:49:03;;;;;;;2.97;0.80;;;;;;;;;;6271932;22;20004;-77
2023/05/12 00:51:29;;;;;;;1.98;0.70;;;;;;;;;;6244503;22;20008;-77
2023/05/12 00:53:56;;;;;;;1.40;0.60;;;;;;;;;;6271955;22;20003;-77
2023/05/12 00:56:22;;;;;;;2.55;0.60;;;;;;;;;;6272150;22;20007;-77
2023/05/12 00:58:47;;;;;;;1.58;0.63;;;;;;;;;;6272046;22;20004;-77
2023/05/12 01:01:13;;;;;;;3.15;0.70;;;;;;;;;;6271752;22;20061;-77
2023/05/12 01:03:39;;;;;;;2.67;0.80;;;;;;;;;;6271545;22;20546;-77
2023/05/12 01:06:33;;;;;;;3.05;0.70;;;;;;;;;;6271823;22;20004;-77
2023/05/12 01:08:59;;;;;;;2.50;0.70;;;;;;;;;;6244665;22;20035;-77
2023/05/12 01:11:24;;;;;;;3.70;0.88;;;;;;;;;;6271859;22;19999;-76
2023/05/12 01:13:50;;;;;;;1.75;0.75;;;;;;;;;;6271817;22;20262;-76
2023/05/12 01:16:18;;;;;;;4.10;0.77;;;;;;;;;;6272122;22;20000;-77
2023/05/12 01:18:49;;;;;;;3.42;0.75;;;;;;;;;;6271491;22;20345;-78
2023/05/12 01:21:16;;;;;;;1.65;0.60;;;;;;;;;;6271430;22;20004;-76
2023/05/12 01:23:48;;;;;;;3.70;0.80;;;;;;;;;;6271644;22;20083;-77
2023/05/12 01:26:14;;;;;;;2.28;0.80;;;;;;;;;;6271996;22;20057;-77
2023/05/12 01:28:40;;;;;;;1.17;0.55;;;;;;;;;;6272132;22;20003;-77
2023/05/12 01:31:07;;;;;;;1.60;0.70;;;;;;;;;;6272063;22;20015;-76
2023/05/12 01:33:33;;;;;;;1.63;0.70;;;;;;;;;;6271665;22;20003;-77
2023/05/12 01:35:59;;;;;;;1.67;0.77;;;;;;;;;;6271264;22;20000;-76
2023/05/12 01:38:25;;;;;;;1.92;0.60;;;;;;;;;;6271527;22;20003;-77
2023/05/12 01:40:51;;;;;;;1.00;0.60;;;;;;;;;;6271848;22;20011;-77
2023/05/12 01:43:16;;;;;;;2.92;0.75;;;;;;;;;;6271323;22;20359;-76
2023/05/12 01:45:42;;;;;;;2.58;0.70;;;;;;;;;;6272026;22;20000;-77
2023/05/12 01:48:07;;;;;;;2.45;0.70;;;;;;;;;;6271362;22;20103;-77
2023/05/12 01:50:33;;;;;;;1.13;0.60;;;;;;;;;;6271677;22;20106;-77
2023/05/12 01:52:58;;;;;;;1.48;0.70;;;;;;;;;;6270700;22;20010;-77
2023/05/12 01:55:23;;;;;;;2.10;0.65;;;;;;;;;;6271990;22;20003;-77
2023/05/12 01:57:49;;;;;;;3.42;0.70;;;;;;;;;;6271637;22;20038;-76
2023/05/12 02:00:14;;;;;;;3.25;0.80;;;;;;;;;;6271191;22;20030;-76
2023/05/12 02:02:41;;;;;;;1.33;0.57;;;;;;;;;;6271468;22;20004;-76
2023/05/12 02:05:08;;;;;;;2.10;0.70;;;;;;;;;;6244230;22;20000;-76
2023/05/12 02:07:33;;;;;;;1.23;0.68;;;;;;;;;;6270840;22;20007;-77
2023/05/12 02:09:58;;;;;;;2.03;0.82;;;;;;;;;;6271157;22;20000;-77
2023/05/12 02:12:24;;;;;;;1.88;0.70;;;;;;;;;;6243910;22;20003;-76
2023/05/12 02:14:49;;;;;;;4.65;0.93;;;;;;;;;;6271404;22;20079;-77
2023/05/12 02:17:16;;;;;;;1.73;0.70;;;;;;;;;;6271545;22;20456;-77
2023/05/12 02:19:41;;;;;;;3.65;0.93;;;;;;;;;;6271179;22;20023;-77
2023/05/12 02:22:07;;;;;;;2.15;0.68;;;;;;;;;;6270634;22;19999;-77
2023/05/12 02:24:32;;;;;;;2.45;0.75;;;;;;;;;;6271168;22;20483;-77
2023/05/12 02:26:58;;;;;;;2.65;1.20;;;;;;;;;;6271506;22;20031;-77
2023/05/12 02:29:23;;;;;;;2.20;0.82;;;;;;;;;;6271026;22;20004;-77
2023/05/12 02:31:49;;;;;;;3.33;0.70;;;;;;;;;;6271251;22;20170;-77
2023/05/12 02:34:14;;;;;;;2.35;0.90;;;;;;;;;;6243719;22;20004;-77
2023/05/12 02:36:40;;;;;;;2.67;0.90;;;;;;;;;;6270691;22;20004;-77
2023/05/12 02:39:05;;;;;;;3.42;0.80;;;;;;;;;;6270970;22;20015;-77
2023/05/12 02:41:30;;;;;;;4.57;1.00;;;;;;;;;;6243876;22;20094;-77
2023/05/12 02:43:56;;;;;;;1.85;0.93;;;;;;;;;;6270885;22;20086;-77
2023/05/12 02:46:21;;;;;;;3.28;0.98;;;;;;;;;;6271118;22;20435;-77
2023/05/12 02:48:47;;;;;;;2.75;1.02;;;;;;;;;;6270865;22;20085;-77
2023/05/12 02:51:12;;;;;;;2.80;1.13;;;;;;;;;;6243498;22;20003;-78
2023/05/12 02:53:37;;;;;;;3.20;1.08;;;;;;;;;;6270709;22;20069;-77
2023/05/12 02:56:03;;;;;;;5.25;1.10;;;;;;;;;;6271180;22;20027;-77
2023/05/12 02:58:28;;;;;;;6.63;1.27;;;;;;;;;;6243539;22;20008;-77
2023/05/12 03:00:54;;;;;;;2.85;1.10;;;;;;;;;;6270398;22;20003;-77
2023/05/12 03:03:19;;;;;;;4.30;1.10;;;;;;;;;;6270540;22;20006;-77
2023/05/12 03:05:45;;;;;;;5.20;1.30;;;;;;;;;;6243263;22;20026;-77
2023/05/12 03:08:10;;;;;;;4.70;1.20;;;;;;;;;;6270465;22;20082;-77
2023/05/12 03:10:36;;;;;;;2.97;1.10;;;;;;;;;;6270778;22;20030;-77
2023/05/12 03:13:02;;;;;;;4.43;1.25;;;;;;;;;;6270782;22;20004;-77
2023/05/12 03:15:27;;;;;;;3.88;1.20;;;;;;;;;;6270727;22;20045;-77
2023/05/12 03:17:53;;;;;;;5.72;1.10;;;;;;;;;;6270989;22;20010;-77
2023/05/12 03:20:18;;;;;;;3.78;1.30;;;;;;;;;;6270329;22;20035;-77
2023/05/12 03:22:44;;;;;;;3.58;1.20;;;;;;;;;;6270169;22;20329;-76
2023/05/12 03:25:11;;;;;;;3.55;1.17;;;;;;;;;;6270424;22;20081;-77
2023/05/12 03:27:36;;;;;;;3.72;1.13;;;;;;;;;;6270822;22;20031;-77
2023/05/12 03:30:03;;;;;;;3.95;1.17;;;;;;;;;;6243200;22;20341;-77
2023/05/12 03:32:29;;;;;;;3.40;1.17;;;;;;;;;;6270578;22;20004;-77
2023/05/12 03:34:55;;;;;;;3.03;1.17;;;;;;;;;;6270514;22;20394;-76
2023/05/12 03:37:20;;;;;;;4.47;1.17;;;;;;;;;;6270211;22;20034;-77
2023/05/12 03:39:46;;;;;;;9.25;1.55;;;;;;;;;;6270233;22;20023;-77
2023/05/12 03:42:13;;;;;;;2.85;1.20;;;;;;;;;;6270627;22;20008;-77
2023/05/12 03:44:38;;;;;;;5.90;1.40;;;;;;;;;;6270477;22;20018;-77
2023/05/12 03:47:04;;;;;;;7.07;1.40;;;;;;;;;;6270386;22;20003;-77
2023/05/12 03:49:29;;;;;;;3.47;1.38;;;;;;;;;;6270288;22;20007;-77
2023/05/12 03:51:55;;;;;;;3.97;1.55;;;;;;;;;;6242739;22;20378;-78
2023/05/12 03:54:20;;;;;;;4.25;1.50;;;;;;;;;;6270169;22;20463;-77
2023/05/12 03:56:46;;;;;;;2.72;1.40;;;;;;;;;;6270441;22;20454;-78
2023/05/12 03:59:11;;;;;;;3.90;1.65;;;;;;;;;;6270388;22;20004;-77
2023/05/12 04:01:37;;;;;;;5.75;1.63;;;;;;;;;;6242967;22;20003;-77
2023/05/12 04:04:03;;;;;;;3.80;1.70;;;;;;;;;;6270141;22;20053;-76
2023/05/12 04:06:28;;;;;;;5.40;1.60;;;;;;;;;;6270080;22;20009;-77
2023/05/12 04:08:53;;;;;;;3.72;1.30;;;;;;;;;;6243338;22;20029;-77
2023/05/12 04:11:19;;;;;;;4.53;1.40;;;;;;;;;;6271517;22;20000;-77
2023/05/12 04:13:44;;;;;;;6.07;1.60;;;;;;;;;;6272196;22;20313;-77
2023/05/12 04:16:10;;;;;;;3.75;1.70;;;;;;;;;;6272187;22;20060;-77
2023/05/12 04:18:35;;;;;;;5.60;1.45;;;;;;;;;;6245421;22;20006;-77
2023/05/12 04:21:01;;;;;;;4.32;1.83;;;;;;;;;;6244858;22;20058;-78
2023/05/12 04:23:27;;;;;;;3.40;1.42;;;;;;;;;;6272524;22;20004;-77
2023/05/12 04:25:52;;;;;;;5.93;1.48;;;;;;;;;;6272979;22;20011;-77
2023/05/12 04:28:18;;;;;;;6.13;1.88;;;;;;;;;;6273118;22;20289;-76
2023/05/12 04:30:43;;;;;;;4.03;1.50;;;;;;;;;;6272228;22;20034;-76
2023/05/12 04:33:08;;;;;;;2.60;1.48;;;;;;;;;;6271948;22;20034;-77
2023/05/12 04:35:34;;;;;;;6.32;1.77;;;;;;;;;;6271810;22;19996;-77
2023/05/12 04:38:00;;;;;;;5.82;1.60;;;;;;;;;;6272069;22;19999;-76
2023/05/12 04:40:26;;;;;;;6.97;2.00;;;;;;;;;;6244707;22;20444;-77
2023/05/12 04:42:51;;;;;;;9.20;1.83;;;;;;;;;;6272512;22;20026;-77
2023/05/12 04:45:17;;;;;;;3.60;1.65;;;;;;;;;;6272014;22;20000;-78
2023/05/12 04:47:42;;;;;;;6.78;2.13;;;;;;;;;;6272309;22;20004;-76
2023/05/12 04:50:09;;;;;;;7.97;2.13;;;;;;;;;;6271829;22;20014;-77
2023/05/12 04:52:34;;;;;;;5.32;1.75;;;;;;;;;;6270613;22;20023;-77
2023/05/12 04:55:00;;;;;;;6.15;1.73;;;;;;;;;;6271606;22;19995;-76
2023/05/12 04:57:25;;;;;;;4.65;1.50;;;;;;;;;;6272164;22;19999;-76
2023/05/12 04:59:51;;;;;;;6.40;2.03;;;;;;;;;;6271949;22;19996;-77
2023/05/12 05:02:16;;;;;;;6.53;1.85;;;;;;;;;;6271833;22;20413;-76
2023/05/12 05:04:42;;;;;;;5.40;1.70;;;;;;;;;;6272027;22;20008;-77
2023/05/12 05:07:07;;;;;;;4.78;1.90;;;;;;;;;;6271424;22;20075;-77
2023/05/12 05:09:32;;;;;;;6.85;1.83;;;;;;;;;;6272086;22;20031;-77
2023/05/12 05:11:58;;;;;;;5.70;1.90;;;;;;;;;;6271927;22;20000;-76
2023/05/12 05:14:23;;;;;;;5.32;1.70;;;;;;;;;;6271957;22;20398;-76
2023/05/12 05:16:49;;;;;;;6.32;1.90;;;;;;;;;;6271715;22;20109;-76
2023/05/12 05:19:15;;;;;;;4.90;2.15;;;;;;;;;;6272065;22;20006;-76
2023/05/12 05:21:41;;;;;;;6.03;2.10;;;;;;;;;;6271258;22;20065;-77
2023/05/12 05:24:06;;;;;;;4.50;2.20;;;;;;;;;;6271559;22;20004;-77
2023/05/12 05:26:32;;;;;;;7.15;2.42;;;;;;;;;;6244327;22;20004;-77
2023/05/12 05:28:58;;;;;;;7.25;2.55;;;;;;;;;;6272253;22;20007;-77
2023/05/12 05:31:23;;;;;;;5.68;2.40;;;;;;;;;;6271742;22;20064;-76
2023/05/12 05:33:49;;;;;;;8.45;2.45;;;;;;;;;;6271623;22;20003;-76
2023/05/12 05:36:15;;;;;;;7.93;2.40;;;;;;;;;;6271229;22;20011;-76
2023/05/12 05:38:43;;;;;;;11.32;2.53;;;;;;;;;;6271593;22;20489;-78
2023/05/12 05:41:09;;;;;;;10.20;2.28;;;;;;;;;;6244316;22;20378;-78
2023/05/12 05:43:34;;;;;;;13.88;2.67;;;;;;;;;;6271469;22;20027;-78
2023/05/12 05:45:59;;;;;;;8.55;2.38;;;;;;;;;;6271534;22;19999;-78
2023/05/12 05:48:25;;;;;;;6.65;1.95;;;;;;;;;;6271828;22;20003;-78
2023/05/12 05:50:51;;;;;;;7.00;2.55;;;;;;;;;;6271102;22;20035;-78
2023/05/12 05:53:17;;;;;;;5.03;2.22;;;;;;;;;;6271697;22;20073;-77
2023/05/12 05:55:44;;;;;;;6.63;2.28;;;;;;;;;;6271710;22;20074;-78
2023/05/12 05:58:09;;;;;;;7.60;2.20;;;;;;;;;;6271791;22;20420;-77
2023/05/12 06:00:34;;;;;;;9.68;2.45;;;;;;;;;;6271157;22;20014;-77
2023/05/12 06:03:00;;;;;;;5.47;2.30;;;;;;;;;;6271509;22;20507;-78
2023/05/12 06:05:25;;;;;;;8.65;2.70;;;;;;;;;;6271424;22;20117;-77
2023/05/12 06:07:51;;;;;;;7.32;2.60;;;;;;;;;;6271112;22;20495;-77
2023/05/12 06:10:16;;;;;;;7.35;2.47;;;;;;;;;;6271638;22;20011;-78
2023/05/12 06:12:45;;;;;;;4.45;2.67;;;;;;;;;;6271536;22;19999;-77
2023/05/12 06:15:10;;;;;;;9.07;3.00;;;;;;;;;;6271307;22;20008;-77
2023/05/12 06:17:36;;;;;;;9.43;3.08;;;;;;;;;;6271121;22;20011;-78
2023/05/12 06:20:03;;;;;;;7.45;3.33;;;;;;;;;;6271461;22;20000;-78
2023/05/12 06:22:29;;;;;;;13.00;3.60;;;;;;;;;;6270823;22;20006;-78
2023/05/12 06:24:54;;;;;;;8.15;3.20;;;;;;;;;;6271304;22;20027;-78
2023/05/12 06:27:19;;;;;;;6.40;3.33;;;;;;;;;;6271161;22;20003;-77
2023/05/12 06:29:45;;;;;;;8.70;3.40;;;;;;;;;;6271449;22;20011;-78
2023/05/12 06:32:10;;;;;;;13.02;3.30;;;;;;;;;;6243943;22;20004;-78
2023/05/12 06:34:36;;;;;;;11.27;2.95;;;;;;;;;;6270506;22;20069;-78
2023/05/12 06:37:01;;;;;;;5.32;2.53;;;;;;;;;;6270575;22;20037;-78
2023/05/12 06:39:26;;;;;;;7.38;2.97;;;;;;;;;;6271078;22;20019;-78
2023/05/12 06:41:52;;;;;;;8.55;3.08;;;;;;;;;;6243803;22;20004;-77
2023/05/12 06:44:17;;;;;;;7.82;2.88;;;;;;;;;;6271099;22;20006;-79
2023/05/12 06:46:46;;;;;;;7.15;3.00;;;;;;;;;;6271052;22;20000;-78
2023/05/12 06:49:11;;;;;;;8.63;3.17;;;;;;;;;;6271081;22;20011;-78
2023/05/12 06:51:36;;;;;;;10.45;3.47;;;;;;;;;;6270287;22;20041;-78
2023/05/12 06:54:02;;;;;;;12.60;3.22;;;;;;;;;;6271198;22;20088;-78
2023/05/12 06:56:28;;;;;;;7.97;2.78;;;;;;;;;;6271163;22;20452;-78
2023/05/12 06:58:59;;;;;;;10.88;2.85;;;;;;;;;;6270981;22;20015;-77
2023/05/12 07:01:29;;;;;;;7.80;3.33;;;;;;;;;;6270801;22;20360;-77
2023/05/12 07:03:55;;;;;;;7.07;3.53;;;;;;;;;;6270808;22;20340;-77
2023/05/12 07:06:21;;;;;;;11.38;3.10;;;;;;;;;;6270430;22;20624;-78
2023/05/12 07:08:47;;;;;;;6.63;2.60;;;;;;;;;;6271085;22;20010;-77
2023/05/12 07:11:18;;;;;;;9.13;2.53;;;;;;;;;;6270832;22;20053;-78
2023/05/12 07:13:47;;;;;;;8.65;2.35;;;;;;;;;;6270854;22;20010;-77
2023/05/12 07:16:13;;;;;;;12.25;2.60;;;;;;;;;;6270887;22;20003;-77
2023/05/12 07:18:39;;;;;;;7.43;2.67;;;;;;;;;;6271017;22;20004;-77
2023/05/12 07:21:04;;;;;;;9.38;2.60;;;;;;;;;;6270499;22;20004;-77
2023/05/12 07:23:30;;;;;;;13.40;3.13;;;;;;;;;;6270762;22;20004;-77
2023/05/12 07:25:55;;;;;;;10.60;2.42;;;;;;;;;;6270666;22;20007;-77
2023/05/12 07:28:21;;;;;;;6.70;2.55;;;;;;;;;;6270353;22;20083;-77
2023/05/12 07:30:46;;;;;;;10.52;2.67;;;;;;;;;;6270779;22;20528;-77
2023/05/12 07:33:12;;;;;;;9.07;2.22;;;;;;;;;;6270262;22;20002;-77
2023/05/12 07:35:37;;;;;;;7.47;2.75;;;;;;;;;;6270715;22;20023;-77
2023/05/12 07:38:05;;;;;;;8.70;2.58;;;;;;;;;;6269858;22;20075;-77
2023/05/12 07:40:30;;;;;;;8.93;2.67;;;;;;;;;;6243274;22;20332;-77
2023/05/12 07:42:56;;;;;;;8.07;2.30;;;;;;;;;;6270791;22;20466;-78
2023/05/12 07:45:23;;;;;;;7.20;2.55;;;;;;;;;;6270315;22;20004;-77
2023/05/12 07:47:49;;;;;;;8.18;2.25;;;;;;;;;;6270294;22;20035;-77
2023/05/12 07:50:16;;;;;;;6.80;2.15;;;;;;;;;;6270590;22;20657;-77
2023/05/12 07:52:49;;;;;;;9.35;2.40;;;;;;;;;;6270442;22;20420;-77
2023/05/12 07:55:16;;;;;;;9.05;2.15;;;;;;;;;;6270290;22;20082;-77
2023/05/12 07:57:41;;;;;;;10.38;2.08;;;;;;;;;;6270633;22;20446;-78
2023/05/12 08:00:08;;;;;;;9.05;2.30;;;;;;;;;;6270576;22;20503;-77
2023/05/12 08:02:35;;;;;;;9.82;2.40;;;;;;;;;;6269551;22;20113;-77
2023/05/12 08:05:01;;;;;;;7.43;2.20;;;;;;;;;;6270464;22;20027;-77
2023/05/12 08:07:26;;;;;;;11.02;2.55;;;;;;;;;;6269534;22;20340;-77
2023/05/12 08:09:53;;;;;;;11.98;2.42;;;;;;;;;;6242616;22;20031;-77
2023/05/12 08:12:18;;;;;;;6.72;2.13;;;;;;;;;;6270316;22;20007;-78
2023/05/12 08:14:44;;;;;;;9.45;2.40;;;;;;;;;;6270485;22;20000;-77
2023/05/12 08:17:09;;;;;;;7.25;2.08;;;;;;;;;;6270359;22;20004;-77
2023/05/12 08:19:34;;;;;;;7.40;2.20;;;;;;;;;;6270466;22;20075;-77
2023/05/12 08:22:01;;;;;;;8.00;2.15;;;;;;;;;;6269958;22;20070;-77
2023/05/12 08:24:27;;;;;;;8.88;2.17;;;;;;;;;;6270405;22;20000;-78
2023/05/12 08:26:52;;;;;;;8.93;2.15;;;;;;;;;;6270217;22;20050;-78
2023/05/12 08:29:17;;;;;;;9.85;2.17;;;;;;;;;;6270225;22;20004;-77
2023/05/12 08:31:43;;;;;;;5.93;2.00;;;;;;;;;;6270638;22;20004;-78
2023/05/12 08:34:09;;;;;;;7.15;1.75;;;;;;;;;;6270771;22;20011;-77
2023/05/12 08:36:34;;;;;;;8.27;2.10;;;;;;;;;;6269605;22;20050;-77
2023/05/12 08:39:01;;;;;;;6.05;1.92;;;;;;;;;;6269742;22;20019;-78
2023/05/12 08:41:43;;;;;;;6.93;2.08;;;;;;;;;;6243115;22;20131;-77
2023/05/12 08:44:10;;;;;;;5.07;2.00;;;;;;;;;;6270104;22;20026;-78
2023/05/12 08:46:36;;;;;;;3.22;1.80;;;;;;;;;;6270193;22;20003;-78
2023/05/12 08:49:03;;;;;;;8.90;2.30;;;;;;;;;;6270137;22;20373;-77
2023/05/12 08:51:31;;;;;;;6.60;1.98;;;;;;;;;;6269731;22;20004;-78
2023/05/12 08:53:56;;;;;;;7.47;2.08;;;;;;;;;;6270149;22;20048;-77
2023/05/12 08:56:23;;;;;;;8.55;2.10;;;;;;;;;;6270267;22;20008;-78
2023/05/12 08:58:48;;;;;;;7.53;1.63;;;;;;;;;;6271561;22;20047;-77
2023/05/12 09:01:15;;;;;;;6.22;2.22;;;;;;;;;;6272105;22;20019;-78
2023/05/12 09:03:41;;;;;;;10.32;1.92;;;;;;;;;;6271967;22;20482;-77
2023/05/12 09:06:07;;;;;;;9.95;1.95;;;;;;;;;;6271488;22;20004;-78
2023/05/12 09:08:33;;;;;;;5.53;2.10;;;;;;;;;;6271760;22;20010;-77
2023/05/12 09:11:00;;;;;;;6.47;1.83;;;;;;;;;;6272274;22;20448;-77
2023/05/12 09:13:37;;;;;;;4.32;1.52;;;;;;;;;;6271746;22;20000;-77
2023/05/12 09:16:05;;;;;;;8.48;1.95;;;;;;;;;;6271845;22;20317;-77
2023/05/12 09:18:45;;;;;;;7.60;2.10;;;;;;;;;;6271655;22;20031;-77
2023/05/12 09:21:10;;;;;;;7.38;1.85;;;;;;;;;;6271781;22;20010;-78
2023/05/12 09:23:36;;;;;;;9.00;1.80;;;;;;;;;;6272111;22;20004;-78
2023/05/12 09:26:02;;;;;;;6.60;2.20;;;;;;;;;;6271769;22;20004;-78
2023/05/12 09:28:37;;;;;;;5.55;1.85;;;;;;;;;;6271915;22;20007;-78
2023/05/12 09:31:16;;;;;;;7.43;1.98;;;;;;;;;;6272044;22;20075;-78
2023/05/12 09:33:42;;;;;;;6.35;1.70;;;;;;;;;;6271774;22;20053;-78
2023/05/12 09:36:07;;;;;;;7.10;1.95;;;;;;;;;;6271513;22;20397;-79
2023/05/12 09:38:33;;;;;;;9.38;2.17;;;;;;;;;;6271611;22;20000;-76
2023/05/12 09:40:58;;;;;;;9.75;1.98;;;;;;;;;;6272034;22;20000;-78
2023/05/12 09:43:24;;;;;;;4.03;1.70;;;;;;;;;;6271821;22;20008;-78
2023/05/12 09:45:50;;;;;;;6.75;1.77;;;;;;;;;;6271769;22;20070;-79
2023/05/12 09:48:16;;;;;;;7.60;1.95;;;;;;;;;;6271698;22;20029;-77
2023/05/12 09:50:49;;;;;;;7.38;1.55;;;;;;;;;;6244546;22;20030;-77
2023/05/12 09:53:21;;;;;;;4.28;1.90;;;;;;;;;;6271555;22;20660;-78
2023/05/12 09:55:47;;;;;;;7.18;1.90;;;;;;;;;;6272026;22;20004;-77
2023/05/12 09:58:15;;;;;;;9.10;2.05;;;;;;;;;;6271484;22;20469;-78
2023/05/12 10:00:42;;;;;;;4.95;1.65;;;;;;;;;;6271889;22;20008;-77
2023/05/12 10:03:14;;;;;;;5.03;1.52;;;;;;;;;;6271540;22;20079;-78
2023/05/12 10:05:48;;;;;;;6.75;1.60;;;;;;;;;;6271584;22;20031;-78
2023/05/12 10:08:22;;;;;;;6.57;1.85;;;;;;;;;;6271041;22;20008;-77
2023/05/12 10:10:51;;;;;;;4.97;1.80;;;;;;;;;;6271708;22;20019;-77
2023/05/12 10:13:17;;;;;;;5.07;1.80;;;;;;;;;;6271615;22;20023;-78
2023/05/12 10:15:43;;;;;;;4.95;1.83;;;;;;;;;;6243941;22;20418;-77
2023/05/12 10:18:09;;;;;;;5.72;1.98;;;;;;;;;;6271425;22;20388;-77
2023/05/12 10:20:36;;;;;;;6.35;1.92;;;;;;;;;;6271668;22;20003;-77
2023/05/12 10:23:02;;;;;;;6.70;1.92;;;;;;;;;;6270996;22;20003;-77
2023/05/12 10:25:29;;;;;;;5.22;1.70;;;;;;;;;;6271158;22;20035;-77
2023/05/12 10:27:56;;;;;;;5.63;1.70;;;;;;;;;;6271295;22;20014;-78
2023/05/12 10:30:22;;;;;;;6.03;1.75;;;;;;;;;;6271397;22;20000;-77
2023/05/12 10:32:49;;;;;;;6.57;1.70;;;;;;;;;;6271359;22;19999;-77
2023/05/12 10:35:15;;;;;;;6.53;1.60;;;;;;;;;;6271215;22;20004;-78
2023/05/12 10:37:42;;;;;;;7.45;2.10;;;;;;;;;;6243859;22;20000;-77
2023/05/12 10:40:09;;;;;;;6.85;2.00;;;;;;;;;;6243690;22;20110;-77
2023/05/12 10:42:41;;;;;;;4.88;1.77;;;;;;;;;;6271150;22;20014;-78
2023/05/12 10:45:17;;;;;;;8.43;1.80;;;;;;;;;;6271133;22;20000;-77
2023/05/12 10:47:44;;;;;;;7.85;2.00;;;;;;;;;;6271281;22;20031;-77
2023/05/12 10:50:12;;;;;;;4.68;1.70;;;;;;;;;;6270548;22;20008;-77
2023/05/12 10:52:58;;;;;;;5.10;1.60;;;;;;;;;;6270685;22;20004;-78
2023/05/12 10:55:41;;;;;;;6.03;1.73;;;;;;;;;;6270269;22;20035;-77
2023/05/12 10:58:10;;;;;;;7.70;2.00;;;;;;;;;;6271253;22;20077;-78
2023/05/12 11:00:49;;;;;;;5.67;1.50;;;;;;;;;;6270858;22;20374;-78
2023/05/12 11:03:17;;;;;;;8.45;1.60;;;;;;;;;;6271075;22;20007;-78
2023/05/12 11:05:44;;;;;;;5.72;1.80;;;;;;;;;;6270407;22;20360;-78
2023/05/12 11:08:10;;;;;;;9.70;1.70;;;;;;;;;;6270969;22;20008;-78
2023/05/12 11:10:39;;;;;;;3.85;1.38;;;;;;;;;;6270962;22;20118;-78
2023/05/12 11:13:05;;;;;;;4.13;1.50;;;;;;;;;;6270897;22;20004;-77
2023/05/12 11:15:30;;;;;;;6.68;1.60;;;;;;;;;;6270591;22;20061;-78
2023/05/12 11:17:56;;;;;;;5.32;1.45;;;;;;;;;;6243794;22;20061;-77
2023/05/12 11:20:22;;;;;;;5.45;1.45;;;;;;;;;;6270495;22;20004;-78
2023/05/12 11:22:48;;;;;;;4.65;1.30;;;;;;;;;;6270471;22;20007;-78
2023/05/12 11:25:14;;;;;;;2.97;1.48;;;;;;;;;;6270747;22;20075;-76
2023/05/12 11:27:51;;;;;;;3.28;1.30;;;;;;;;;;6244251;22;20012;-76
2023/05/12 11:30:16;;;;;;;4.28;1.52;;;;;;;;;;6270809;22;20458;-78
2023/05/12 11:32:42;;;;;;;7.55;1.70;;;;;;;;;;6270915;22;20000;-78
2023/05/12 11:35:16;;;;;;;7.78;1.73;;;;;;;;;;6270587;22;20000;-78
2023/05/12 11:37:43;;;;;;;3.95;1.30;;;;;;;;;;6270534;22;20006;-78
2023/05/12 11:40:21;;;;;;;3.17;1.17;;;;;;;;;;6269880;22;20023;-78
2023/05/12 11:42:50;;;;;;;6.47;1.65;;;;;;;;;;6270578;22;20000;-78
2023/05/12 11:45:27;;;;;;;3.75;1.30;;;;;;;;;;6270572;22;19999;-78
2023/05/12 11:48:04;;;;;;;2.53;1.27;;;;;;;;;;6270691;22;20012;-78
2023/05/12 11:50:30;;;;;;;4.85;1.52;;;;;;;;;;6270284;22;20320;-77
2023/05/12 11:52:56;;;;;;;6.40;1.42;;;;;;;;;;6270152;22;20004;-78
2023/05/12 11:55:23;;;;;;;5.50;1.30;;;;;;;;;;6270506;22;20027;-77
2023/05/12 11:57:57;;;;;;;3.20;1.27;;;;;;;;;;6270491;22;20087;-77
2023/05/12 12:00:31;;;;;;;4.78;1.30;;;;;;;;;;6270573;22;20007;-78
2023/05/12 12:03:13;;;;;;;6.60;1.60;;;;;;;;;;6270313;22;20007;-77
2023/05/12 12:05:41;;;;;;;3.53;1.50;;;;;;;;;;6270541;22;20052;-78
2023/05/12 12:08:12;;;;;;;6.07;1.33;;;;;;;;;;6270660;22;20095;-78
2023/05/12 12:10:38;;;;;;;;;;;;;;;;;;6271079;22;20000;-78
2023/05/12 12:13:03;;;;;;;4.25;1.40;;;;;;;;;;6270384;22;19914;-77
2023/05/12 12:15:28;;;;;;;5.03;1.50;;;;;;;;;;6270194;22;20004;-78
2023/05/12 12:17:54;;;;;;;3.17;1.38;;;;;;;;;;6270438;22;20000;-77
2023/05/12 12:20:23;;;;;;;1.70;0.90;;;;;;;;;;6270814;22;20004;-77
2023/05/12 12:22:50;;;;;;;3.13;1.10;;;;;;;;;;6269929;22;20007;-78
2023/05/12 12:25:15;;;;;;;4.60;1.02;;;;;;;;;;6270315;22;20007;-77
2023/05/12 12:27:41;;;;;;;5.40;1.13;;;;;;;;;;6270358;22;20088;-78
2023/05/12 12:30:07;;;;;;;1.80;1.05;;;;;;;;;;6270118;22;20007;-78
2023/05/12 12:32:32;;;;;;;4.65;0.90;;;;;;;;;;6270675;22;20007;-78
2023/05/12 12:35:00;;;;;;;1.65;0.80;;;;;;;;;;6272234;22;20415;-78
2023/05/12 12:37:25;;;;;;;1.75;0.70;;;;;;;;;;6271977;22;20000;-77
2023/05/12 12:39:51;;;;;;;2.20;0.80;;;;;;;;;;6272197;22;20034;-78
2023/05/12 12:42:16;;;;;;;1.95;0.77;;;;;;;;;;6272218;22;20109;-78
2023/05/12 12:44:42;;;;;;;2.05;0.80;;;;;;;;;;6272367;22;20008;-78
2023/05/12 12:47:08;;;;;;;4.38;1.00;;;;;;;;;;6272098;22;20098;-78
2023/05/12 12:49:33;;;;;;;1.90;0.70;;;;;;;;;;6272806;22;20027;-78
2023/05/12 12:51:59;;;;;;;2.53;0.80;;;;;;;;;;6271798;22;20088;-77
2023/05/12 12:54:25;;;;;;;4.22;1.08;;;;;;;;;;6272220;22;20078;-78
2023/05/12 12:56:51;;;;;;;2.58;0.90;;;;;;;;;;6272126;22;20023;-78
2023/05/12 12:59:17;;;;;;;4.00;1.00;;;;;;;;;;6272512;22;20383;-78
2023/05/12 13:01:42;;;;;;;5.88;1.30;;;;;;;;;;6272095;22;20421;-78
2023/05/12 13:04:08;;;;;;;2.60;1.10;;;;;;;;;;6272049;22;20011;-78
2023/05/12 13:06:33;;;;;;;4.93;1.27;;;;;;;;;;6271617;22;20034;-78
2023/05/12 13:08:59;;;;;;;2.70;0.95;;;;;;;;;;6272183;22;20375;-78
2023/05/12 13:11:25;;;;;;;2.38;1.00;;;;;;;;;;6244540;22;20057;-78
2023/05/12 13:13:50;;;;;;;3.28;1.10;;;;;;;;;;6271692;22;19999;-78
2023/05/12 13:16:16;;;;;;;4.10;1.10;;;;;;;;;;6271920;22;20080;-77
2023/05/12 13:18:41;;;;;;;3.67;1.10;;;;;;;;;;6272138;22;20003;-78
2023/05/12 13:21:06;;;;;;;3.53;1.00;;;;;;;;;;6271806;22;20057;-78
2023/05/12 13:23:32;;;;;;;5.30;1.20;;;;;;;;;;6271843;22;20035;-78
2023/05/12 13:25:57;;;;;;;4.53;1.15;;;;;;;;;;6271904;22;20420;-78
2023/05/12 13:28:23;;;;;;;3.00;1.30;;;;;;;;;;6271819;22;20008;-77
2023/05/12 13:30:51;;;;;;;7.13;1.35;;;;;;;;;;6271486;22;20480;-77
2023/05/12 13:33:16;;;;;;;4.97;1.90;;;;;;;;;;6271591;22;20452;-78
2023/05/12 13:35:42;;;;;;;5.88;1.73;;;;;;;;;;6271187;22;20015;-78
2023/05/12 13:38:09;;;;;;;5.97;1.50;;;;;;;;;;6244879;22;20039;-77
2023/05/12 13:40:35;;;;;;;3.13;1.50;;;;;;;;;;6271807;22;20090;-77
2023/05/12 13:43:01;;;;;;;4.78;1.75;;;;;;;;;;6271323;22;20344;-77
2023/05/12 13:45:26;;;;;;;4.45;1.30;;;;;;;;;;6271890;22;20448;-77
2023/05/12 13:47:51;;;;;;;4.15;1.38;;;;;;;;;;6271509;22;20007;-77
2023/05/12 13:50:17;;;;;;;6.47;1.40;;;;;;;;;;6271885;22;20004;-78
2023/05/12 13:52:42;;;;;;;4.88;1.10;;;;;;;;;;6270732;22;20348;-78
2023/05/12 13:55:09;;;;;;;3.55;1.25;;;;;;;;;;6271622;22;20352;-78
2023/05/12 13:57:34;;;;;;;4.25;1.27;;;;;;;;;;6271442;22;20038;-78
2023/05/12 14:00:00;;;;;;;6.30;1.42;;;;;;;;;;6271805;22;20167;-78
2023/05/12 14:02:26;;;;;;;3.63;1.35;;;;;;;;;;6271421;22;20031;-78
2023/05/12 14:04:52;;;;;;;4.80;1.27;;;;;;;;;;6271236;22;20006;-77
2023/05/12 14:07:18;;;;;;;4.68;1.65;;;;;;;;;;6270818;22;20011;-77
2023/05/12 14:09:44;;;;;;;6.10;1.33;;;;;;;;;;6271518;22;20003;-77
2023/05/12 14:12:09;;;;;;;3.17;1.00;;;;;;;;;;6270956;22;20089;-77
2023/05/12 14:14:35;;;;;;;2.90;1.17;;;;;;;;;;6271352;22;20006;-77
2023/05/12 14:17:00;;;;;;;4.35;1.20;;;;;;;;;;6271398;22;19999;-78
2023/05/12 14:19:26;;;;;;;5.88;1.08;;;;;;;;;;6271657;22;20000;-77
2023/05/12 14:21:51;;;;;;;2.92;1.17;;;;;;;;;;6270792;22;20463;-76
2023/05/12 14:24:17;;;;;;;3.45;1.20;;;;;;;;;;6271308;22;20053;-77
2023/05/12 14:26:42;;;;;;;2.50;0.90;;;;;;;;;;6271130;22;20000;-77
2023/05/12 14:29:08;;;;;;;4.25;1.13;;;;;;;;;;6271542;22;19914;-77
2023/05/12 14:31:33;;;;;;;5.40;1.10;;;;;;;;;;6271157;22;20003;-77
2023/05/12 14:33:59;;;;;;;5.82;1.15;;;;;;;;;;6271026;22;19999;-77
2023/05/12 14:36:25;;;;;;;3.38;1.00;;;;;;;;;;6270711;22;20011;-77
2023/05/12 14:38:50;;;;;;;4.43;0.90;;;;;;;;;;6271007;22;20022;-77